createdAt,value
2019-06-20T00:01:11.392Z,23.50
2019-06-20T00:03:42.399Z,23.47
2019-06-20T00:06:13.368Z,23.42
2019-06-20T00:08:44.397Z,23.41
2019-06-20T00:11:15.283Z,23.40
2019-06-20T00:13:46.296Z,23.38
2019-06-20T00:16:17.313Z,23.36
2019-06-20T00:18:48.399Z,23.33
2019-06-20T00:21:19.350Z,23.33
2019-06-20T00:23:50.393Z,23.28
2019-06-20T00:26:21.391Z,23.24
2019-06-20T00:28:52.358Z,23.19
2019-06-20T00:31:23.269Z,23.15
2019-06-20T00:33:54.243Z,23.16
2019-06-20T00:36:25.335Z,23.15
2019-06-20T00:38:56.320Z,23.15
2019-06-20T00:41:27.376Z,23.18
2019-06-20T00:43:58.335Z,23.14
2019-06-20T00:46:29.301Z,23.15
2019-06-20T00:49:00.396Z,23.08
2019-06-20T00:51:31.389Z,23.08
2019-06-20T00:54:02.638Z,23.03
2019-06-20T00:56:33.747Z,23.02
2019-06-20T00:59:04.757Z,22.99
2019-06-20T01:01:35.756Z,22.99
2019-06-20T01:04:06.761Z,23.00
2019-06-20T01:06:37.773Z,22.98
2019-06-20T01:09:09.846Z,23.01
2019-06-20T01:11:40.956Z,22.98
2019-06-20T01:14:12.048Z,23.00
2019-06-20T01:16:43.137Z,22.98
2019-06-20T01:19:14.269Z,22.95
2019-06-20T01:21:45.351Z,22.93
2019-06-20T01:24:16.339Z,22.91
2019-06-20T01:26:47.431Z,22.89
2019-06-20T01:29:18.613Z,22.86
2019-06-20T01:31:49.687Z,22.86
2019-06-20T01:34:20.654Z,22.85
2019-06-20T01:44:25.414Z,22.89
2019-06-20T01:46:56.406Z,22.97
2019-06-20T01:49:27.444Z,22.98
2019-06-20T01:51:58.409Z,23.01
2019-06-20T01:54:29.404Z,23.04
2019-06-20T01:57:00.496Z,23.09
2019-06-20T01:59:31.588Z,23.12
2019-06-20T02:02:02.573Z,23.16
2019-06-20T02:04:33.611Z,23.21
2019-06-20T02:07:04.626Z,23.37
2019-06-20T02:09:35.765Z,23.96
2019-06-20T02:12:07.959Z,24.72
2019-06-20T02:14:39.040Z,25.47
2019-06-20T02:17:09.978Z,26.22
2019-06-20T02:24:31.127Z,27.43
2019-06-20T02:27:02.220Z,28.43
2019-06-20T02:29:33.474Z,29.43
2019-06-20T02:32:04.496Z,29.89
2019-06-20T02:34:35.624Z,30.06
2019-06-20T02:37:06.818Z,30.51
2019-06-20T02:39:37.893Z,31.07
2019-06-20T02:42:09.151Z,31.37
2019-06-20T02:44:40.285Z,31.84
2019-06-20T02:47:11.760Z,32.38
2019-06-20T02:49:42.886Z,32.82
2019-06-20T02:52:14.003Z,33.15
2019-06-20T02:54:45.096Z,33.87
2019-06-20T02:57:16.268Z,34.57
2019-06-20T02:59:47.514Z,34.54
2019-06-20T03:02:21.453Z,35.06
2019-06-20T03:11:39.248Z,35.47
2019-06-20T03:14:10.218Z,35.67
2019-06-20T03:16:41.231Z,35.75
2019-06-20T03:19:12.296Z,35.69
2019-06-20T03:21:43.338Z,36.38
2019-06-20T03:24:14.412Z,36.38
2019-06-20T03:26:45.512Z,36.64
2019-06-20T03:29:16.688Z,36.36
2019-06-20T03:31:49.390Z,36.65
2019-06-20T03:34:20.388Z,37.45
2019-06-20T03:36:51.461Z,37.38
2019-06-20T03:46:56.297Z,38.30
2019-06-20T03:49:27.335Z,38.03
2019-06-20T03:51:58.295Z,38.33
2019-06-20T03:54:29.316Z,38.57
2019-06-20T03:57:00.469Z,38.62
2019-06-20T03:59:31.531Z,39.09
2019-06-20T04:02:02.595Z,39.24
2019-06-20T04:04:33.615Z,38.93
2019-06-20T04:07:04.662Z,39.38
2019-06-20T04:09:35.673Z,39.48
2019-06-20T04:12:06.683Z,39.70
2019-06-20T04:14:40.958Z,39.56
2019-06-20T04:17:12.100Z,40.00
2019-06-20T04:19:43.152Z,40.12
2019-06-20T04:22:14.156Z,40.68
2019-06-20T04:24:45.211Z,40.47
2019-06-20T04:27:16.155Z,40.51
2019-06-20T04:29:47.214Z,40.35
2019-06-20T04:32:18.343Z,40.25
2019-06-20T04:34:49.400Z,40.53
2019-06-20T04:37:21.914Z,40.74
2019-06-20T04:39:52.977Z,40.64
2019-06-20T04:42:25.581Z,40.33
2019-06-20T04:44:58.373Z,40.41
2019-06-20T04:47:29.388Z,40.15
2019-06-20T04:50:00.466Z,40.13
2019-06-20T04:52:31.665Z,40.40
2019-06-20T04:55:02.698Z,40.06
2019-06-20T04:57:33.870Z,39.93
2019-06-20T05:00:06.978Z,40.06
2019-06-20T05:02:38.090Z,40.09
2019-06-20T05:05:09.510Z,40.18
2019-06-20T05:07:40.847Z,40.40
2019-06-20T05:10:11.817Z,40.34
2019-06-20T05:12:42.969Z,41.10
2019-06-20T05:15:14.210Z,40.92
2019-06-20T05:17:45.184Z,41.33
2019-06-20T05:20:16.326Z,41.68
2019-06-20T05:22:47.439Z,41.93
2019-06-20T05:25:18.768Z,41.98
2019-06-20T05:27:50.936Z,42.55
2019-06-20T05:30:23.413Z,42.99
2019-06-20T05:32:54.456Z,43.16
2019-06-20T05:35:25.645Z,43.51
2019-06-20T05:37:56.939Z,43.64
2019-06-20T05:40:28.020Z,43.82
2019-06-20T05:43:01.842Z,43.85
2019-06-20T05:45:33.946Z,44.29
2019-06-20T05:48:07.660Z,44.61
2019-06-20T05:50:40.761Z,44.47
2019-06-20T05:53:11.940Z,44.48
2019-06-20T05:55:44.260Z,44.44
2019-06-20T05:58:15.689Z,44.53
2019-06-20T06:00:50.170Z,44.51
2019-06-20T06:03:21.408Z,44.25
2019-06-20T06:05:52.441Z,44.13
2019-06-20T06:08:23.553Z,44.11
2019-06-20T06:10:54.690Z,43.94
2019-06-20T06:13:25.813Z,44.03
2019-06-20T06:15:56.986Z,43.97
2019-06-20T06:18:28.542Z,43.91
2019-06-20T06:21:02.977Z,43.66
2019-06-20T06:23:34.716Z,43.61
2019-06-20T06:26:05.804Z,43.53
2019-06-20T06:28:37.342Z,43.71
2019-06-20T06:31:08.492Z,42.63
2019-06-20T06:33:39.628Z,42.21
2019-06-20T06:36:10.811Z,42.24
2019-06-20T06:38:46.257Z,41.96
2019-06-20T06:41:22.083Z,41.61
2019-06-20T06:43:54.303Z,41.51
2019-06-20T06:46:42.941Z,41.54
2019-06-20T06:49:01.305Z,41.92
2019-06-20T06:51:32.316Z,41.80
2019-06-20T06:54:03.451Z,42.45
2019-06-20T06:56:34.770Z,42.02
2019-06-20T06:59:05.919Z,41.44
2019-06-20T07:01:36.974Z,40.84
2019-06-20T07:04:07.983Z,40.65
2019-06-20T07:06:39.046Z,40.55
2019-06-20T07:09:10.700Z,40.40
2019-06-20T07:11:41.791Z,39.91
2019-06-20T07:14:12.905Z,39.56
2019-06-20T07:16:50.869Z,40.01
2019-06-20T07:19:16.855Z,40.51
2019-06-20T07:21:50.229Z,40.78
2019-06-20T07:24:43.682Z,40.20
2019-06-20T07:27:25.353Z,39.27
2019-06-20T07:29:58.488Z,39.24
2019-06-20T07:32:30.909Z,38.90
2019-06-20T07:35:02.328Z,38.56
2019-06-20T07:37:33.470Z,38.42
2019-06-20T07:40:09.253Z,37.66
2019-06-20T07:42:40.481Z,36.53
2019-06-20T07:45:16.730Z,35.54
2019-06-20T07:47:49.424Z,34.67
2019-06-20T07:50:20.688Z,33.90
2019-06-20T07:53:02.029Z,33.64
2019-06-20T07:55:25.540Z,33.66
2019-06-20T07:57:56.579Z,33.49
2019-06-20T08:00:27.970Z,33.50
2019-06-20T08:03:00.427Z,33.70
2019-06-20T08:05:37.687Z,33.40
2019-06-20T08:08:11.942Z,33.44
2019-06-20T08:10:43.184Z,33.29
2019-06-20T08:13:14.405Z,33.05
2019-06-20T08:15:45.451Z,33.07
2019-06-20T08:18:16.827Z,33.24
2019-06-20T08:20:47.882Z,33.57
2019-06-20T08:23:20.530Z,33.72
2019-06-20T08:25:51.618Z,33.56
2019-06-20T08:28:22.642Z,33.37
2019-06-20T08:30:53.700Z,33.41
2019-06-20T08:33:24.733Z,33.37
2019-06-20T08:35:56.968Z,33.44
2019-06-20T08:38:28.661Z,33.40
2019-06-20T08:41:00.195Z,33.55
2019-06-20T08:43:31.389Z,33.81
2019-06-20T08:46:04.070Z,34.23
2019-06-20T08:48:35.042Z,34.43
2019-06-20T08:51:06.559Z,34.54
2019-06-20T08:53:37.960Z,34.63
2019-06-20T08:56:08.929Z,34.60
2019-06-20T08:58:40.001Z,34.76
2019-06-20T09:01:11.670Z,34.46
2019-06-20T09:03:42.662Z,34.19
2019-06-20T09:06:13.719Z,34.20
2019-06-20T09:08:44.768Z,34.13
2019-06-20T09:11:15.811Z,34.22
2019-06-20T09:13:48.503Z,34.53
2019-06-20T09:16:24.571Z,34.69
2019-06-20T09:18:53.463Z,34.81
2019-06-20T09:21:26.029Z,34.91
2019-06-20T09:23:57.798Z,35.12
2019-06-20T09:26:28.927Z,35.46
2019-06-20T09:29:00.144Z,35.52
2019-06-20T09:31:31.136Z,35.05
2019-06-20T09:34:05.267Z,34.62
2019-06-20T09:36:35.084Z,34.52
2019-06-20T09:39:07.787Z,34.47
2019-06-20T09:41:38.816Z,34.47
2019-06-20T09:44:09.872Z,34.69
2019-06-20T09:46:41.394Z,34.62
2019-06-20T09:49:12.424Z,34.25
2019-06-20T09:51:43.324Z,33.93
2019-06-20T09:54:14.327Z,34.10
2019-06-20T09:56:48.477Z,34.27
2019-06-20T09:59:27.504Z,34.30
2019-06-20T10:01:51.531Z,34.54
2019-06-20T10:04:23.615Z,34.68
2019-06-20T10:06:54.768Z,34.72
2019-06-20T10:09:25.781Z,34.46
2019-06-20T10:11:58.032Z,34.55
2019-06-20T10:14:29.082Z,34.76
2019-06-20T10:17:00.260Z,34.59
2019-06-20T10:19:31.306Z,34.64
2019-06-20T10:22:02.230Z,34.59
2019-06-20T10:24:33.208Z,34.68
2019-06-20T10:27:04.309Z,34.71
2019-06-20T10:29:35.370Z,35.00
2019-06-20T10:32:06.382Z,35.11
2019-06-20T10:34:37.813Z,35.11
2019-06-20T10:37:08.939Z,35.06
2019-06-20T10:39:39.994Z,35.20
2019-06-20T10:42:10.906Z,35.07
2019-06-20T10:44:42.993Z,34.93
2019-06-20T10:47:14.696Z,34.73
2019-06-20T10:49:46.231Z,34.40
2019-06-20T10:52:18.366Z,34.05
2019-06-20T10:54:49.360Z,33.68
2019-06-20T10:57:20.316Z,33.75
2019-06-20T10:59:51.223Z,33.96
2019-06-20T11:02:22.341Z,34.46
2019-06-20T11:04:53.311Z,34.64
2019-06-20T11:07:33.236Z,34.54
2019-06-20T11:10:09.887Z,34.42
2019-06-20T11:12:47.551Z,34.29
2019-06-20T11:15:13.929Z,34.10
2019-06-20T11:17:46.296Z,34.01
2019-06-20T11:20:19.558Z,33.88
2019-06-20T11:22:50.629Z,33.77
2019-06-20T11:25:21.602Z,34.09
2019-06-20T11:27:52.520Z,34.40
2019-06-20T11:30:26.551Z,34.75
2019-06-20T11:32:57.564Z,34.67
2019-06-20T11:35:28.568Z,34.47
2019-06-20T11:37:59.538Z,34.49
2019-06-20T11:40:30.725Z,34.40
2019-06-20T11:43:01.743Z,34.22
2019-06-20T11:45:35.408Z,34.10
2019-06-20T11:48:05.556Z,34.15
2019-06-20T11:50:37.791Z,34.15
2019-06-20T11:53:09.191Z,34.12
2019-06-20T11:55:40.208Z,34.02
2019-06-20T11:58:11.210Z,34.02
2019-06-20T12:00:42.281Z,33.99
2019-06-20T12:03:13.255Z,34.05
2019-06-20T12:05:44.879Z,34.08
2019-06-20T12:08:15.964Z,34.19
2019-06-20T12:10:47.346Z,34.40
2019-06-20T12:13:18.684Z,34.64
2019-06-20T12:15:49.684Z,34.67
2019-06-20T12:18:20.666Z,34.45
2019-06-20T12:20:51.732Z,34.13
2019-06-20T12:23:22.833Z,33.94
2019-06-20T12:25:53.833Z,33.78
2019-06-20T12:28:24.952Z,33.76
2019-06-20T12:30:56.016Z,33.95
2019-06-20T12:33:27.083Z,34.22
2019-06-20T12:35:58.261Z,34.29
2019-06-20T12:38:29.363Z,34.25
2019-06-20T12:41:00.582Z,34.16
2019-06-20T12:43:31.730Z,34.38
2019-06-20T12:46:03.018Z,34.54
2019-06-20T12:48:34.047Z,34.73
2019-06-20T12:51:05.178Z,34.82
2019-06-20T12:53:37.772Z,34.81
2019-06-20T12:56:09.047Z,34.78
2019-06-20T12:58:40.761Z,34.71
2019-06-20T13:01:13.279Z,34.60
2019-06-20T13:03:48.037Z,34.63
2019-06-20T13:06:19.391Z,34.55
2019-06-20T13:08:50.372Z,34.49
2019-06-20T13:11:21.534Z,34.20
2019-06-20T13:13:52.603Z,33.78
2019-06-20T13:16:25.285Z,33.73
2019-06-20T13:18:56.327Z,33.81
2019-06-20T13:21:27.330Z,33.77
2019-06-20T13:23:58.352Z,33.98
2019-06-20T13:26:29.344Z,34.10
2019-06-20T13:29:03.974Z,33.97
2019-06-20T13:31:33.015Z,33.74
2019-06-20T13:34:04.033Z,33.60
2019-06-20T13:36:35.089Z,33.56
2019-06-20T13:39:08.136Z,33.61
2019-06-20T13:41:40.778Z,33.84
2019-06-20T13:44:14.421Z,34.13
2019-06-20T13:46:44.683Z,34.18
2019-06-20T13:49:16.373Z,34.04
2019-06-20T13:51:47.721Z,33.96
2019-06-20T13:54:18.821Z,33.86
2019-06-20T13:56:49.958Z,33.71
2019-06-20T13:59:21.041Z,33.82
2019-06-20T14:02:05.828Z,33.85
2019-06-20T14:04:24.908Z,33.67
2019-06-20T14:06:56.029Z,33.50
2019-06-20T14:09:27.667Z,33.33
2019-06-20T14:11:58.774Z,33.22
2019-06-20T14:14:29.776Z,33.28
2019-06-20T14:17:00.869Z,33.56
2019-06-20T14:19:31.909Z,33.77
2019-06-20T14:22:02.991Z,33.85
2019-06-20T14:24:34.020Z,33.93
2019-06-20T14:27:05.603Z,33.77
2019-06-20T14:29:36.868Z,33.65
2019-06-20T14:32:21.472Z,33.47
2019-06-20T14:34:40.660Z,33.44
2019-06-20T14:37:11.765Z,33.47
2019-06-20T14:39:44.844Z,33.58
2019-06-20T14:42:15.543Z,33.53
2019-06-20T14:44:47.662Z,33.43
2019-06-20T14:47:18.854Z,33.36
2019-06-20T14:49:49.892Z,33.36
2019-06-20T14:52:20.985Z,33.39
2019-06-20T14:54:51.989Z,33.35
2019-06-20T14:57:23.040Z,33.25
2019-06-20T14:59:54.455Z,33.26
2019-06-20T15:02:37.402Z,33.26
2019-06-20T15:04:58.160Z,33.22
2019-06-20T15:07:29.407Z,33.33
2019-06-20T15:10:00.612Z,33.35
2019-06-20T15:12:31.723Z,33.31
2019-06-20T15:15:02.655Z,33.43
2019-06-20T15:17:33.656Z,33.53
2019-06-20T15:20:08.088Z,33.48
2019-06-20T15:22:39.151Z,33.45
2019-06-20T15:25:10.584Z,33.43
2019-06-20T15:27:41.794Z,33.25
2019-06-20T15:30:14.136Z,33.22
2019-06-20T15:33:01.084Z,32.95
2019-06-20T15:35:18.231Z,32.82
2019-06-20T15:37:50.193Z,32.75
2019-06-20T15:40:22.124Z,32.65
2019-06-20T15:42:54.929Z,32.70
2019-06-20T15:45:26.347Z,32.68
2019-06-20T15:47:57.680Z,32.58
2019-06-20T15:50:28.870Z,32.53
2019-06-20T15:53:00.002Z,32.48
2019-06-20T15:55:30.996Z,32.45
2019-06-20T15:58:02.093Z,32.52
2019-06-20T16:00:33.770Z,32.45
2019-06-20T16:03:09.935Z,32.51
2019-06-20T16:05:40.499Z,32.61
2019-06-20T16:08:10.573Z,32.66
2019-06-20T16:10:41.704Z,32.58
2019-06-20T16:13:12.778Z,32.43
2019-06-20T16:15:43.953Z,32.25
2019-06-20T16:18:15.074Z,32.08
2019-06-20T16:20:46.172Z,32.12
2019-06-20T16:23:17.359Z,32.08
2019-06-20T16:25:48.311Z,31.82
2019-06-20T16:28:19.372Z,31.67
2019-06-20T16:30:50.419Z,31.55
2019-06-20T16:33:25.474Z,31.42
2019-06-20T16:35:54.600Z,31.36
2019-06-20T16:38:25.616Z,31.25
2019-06-20T16:40:56.721Z,31.20
2019-06-20T16:43:27.620Z,31.11
2019-06-20T16:45:59.418Z,31.03
2019-06-20T16:48:30.512Z,30.99
2019-06-20T16:51:01.631Z,30.91
2019-06-20T16:53:34.386Z,30.88
2019-06-20T16:56:06.833Z,30.81
2019-06-20T16:58:37.918Z,30.76
2019-06-20T17:01:09.055Z,30.67
2019-06-20T17:03:42.014Z,30.56
2019-06-20T17:06:12.808Z,30.48
2019-06-20T17:08:43.796Z,30.41
2019-06-20T17:11:14.815Z,30.36
2019-06-20T17:13:45.983Z,30.26
2019-06-20T17:16:17.078Z,30.19
2019-06-20T17:18:48.210Z,30.12
2019-06-20T17:21:19.191Z,30.02
2019-06-20T17:23:50.144Z,29.94
2019-06-20T17:26:21.138Z,29.85
2019-06-20T17:28:52.205Z,29.74
2019-06-20T17:31:23.198Z,29.63
2019-06-20T17:33:57.823Z,29.53
2019-06-20T17:36:27.267Z,29.41
2019-06-20T17:38:58.390Z,29.30
2019-06-20T17:41:29.396Z,29.18
2019-06-20T17:44:01.058Z,29.07
2019-06-20T17:46:31.951Z,29.04
2019-06-20T17:49:03.102Z,28.95
2019-06-20T17:51:34.110Z,28.85
2019-06-20T17:54:05.103Z,28.82
2019-06-20T17:56:36.117Z,28.75
2019-06-20T17:59:07.114Z,28.68
2019-06-20T18:01:38.269Z,28.57
2019-06-20T18:04:14.079Z,28.52
2019-06-20T18:06:43.089Z,28.51
2019-06-20T18:09:14.108Z,28.47
2019-06-20T18:11:45.366Z,28.35
2019-06-20T18:14:16.448Z,28.24
2019-06-20T18:16:47.529Z,28.15
2019-06-20T18:19:18.636Z,28.04
2019-06-20T18:21:49.783Z,27.92
2019-06-20T18:24:20.829Z,27.81
2019-06-20T18:26:51.845Z,27.74
2019-06-20T18:29:23.048Z,27.65
2019-06-20T18:31:54.107Z,27.57
2019-06-20T18:34:29.844Z,27.49
2019-06-20T18:36:57.997Z,27.42
2019-06-20T18:39:29.098Z,27.37
2019-06-20T18:42:00.330Z,27.27
2019-06-20T18:44:31.384Z,27.19
2019-06-20T18:47:02.450Z,27.17
2019-06-20T18:49:35.343Z,27.09
2019-06-20T18:52:06.635Z,26.96
2019-06-20T18:54:37.711Z,26.78
2019-06-20T18:57:08.753Z,26.53
2019-06-20T18:59:39.837Z,26.34
2019-06-20T19:02:10.983Z,26.17
2019-06-20T19:04:48.015Z,25.98
2019-06-20T19:07:14.876Z,25.84
2019-06-20T19:09:46.101Z,25.73
2019-06-20T19:12:17.235Z,25.60
2019-06-20T19:14:48.391Z,25.44
2019-06-20T19:17:19.458Z,25.33
2019-06-20T19:19:50.386Z,25.31
2019-06-20T19:22:21.414Z,25.27
2019-06-20T19:24:52.406Z,25.31
2019-06-20T19:27:24.149Z,25.35
2019-06-20T19:29:55.146Z,25.38
2019-06-20T19:32:26.975Z,25.39
2019-06-20T19:35:02.441Z,25.31
2019-06-20T19:37:30.946Z,25.39
2019-06-20T19:40:02.253Z,25.43
2019-06-20T19:42:33.314Z,25.33
2019-06-20T19:45:10.722Z,25.30
2019-06-20T19:47:41.965Z,25.26
2019-06-20T19:50:13.302Z,25.26
2019-06-20T19:52:44.430Z,25.30
2019-06-20T19:55:15.582Z,25.23
2019-06-20T19:57:46.634Z,25.15
2019-06-20T20:00:19.697Z,25.05
2019-06-20T20:02:50.717Z,25.05
2019-06-20T20:05:21.940Z,25.03
2019-06-20T20:07:52.978Z,24.90
2019-06-20T20:10:27.244Z,24.80
2019-06-20T20:12:58.294Z,24.75
2019-06-20T20:15:29.257Z,24.80
2019-06-20T20:18:01.390Z,24.73
2019-06-20T20:20:35.552Z,24.70
2019-06-20T20:23:06.691Z,24.68
2019-06-20T20:25:37.699Z,24.57
2019-06-20T20:28:08.788Z,24.46
2019-06-20T20:30:39.865Z,24.46
2019-06-20T20:33:10.899Z,24.45
2019-06-20T20:35:41.957Z,24.41
2019-06-20T20:38:12.965Z,24.44
2019-06-20T20:40:44.885Z,24.47
2019-06-20T20:43:16.126Z,24.40
2019-06-20T20:45:47.239Z,24.35
2019-06-20T20:48:18.201Z,24.32
2019-06-20T20:50:49.254Z,24.25
2019-06-20T20:53:20.280Z,24.20
2019-06-20T20:55:51.282Z,24.14
2019-06-20T20:58:22.322Z,24.04
2019-06-20T21:01:11.077Z,23.92
2019-06-20T21:03:43.547Z,23.85
2019-06-20T21:06:14.736Z,23.80
2019-06-20T21:08:46.122Z,23.92
2019-06-20T21:11:17.106Z,23.88
2019-06-20T21:13:48.506Z,23.91
2019-06-20T21:16:19.545Z,24.14
2019-06-20T21:18:50.610Z,24.20
2019-06-20T21:21:21.697Z,24.31
2019-06-20T21:23:52.700Z,24.45
2019-06-20T21:26:23.887Z,24.48
2019-06-20T21:28:54.904Z,24.44
2019-06-20T21:31:25.886Z,24.45
2019-06-20T21:33:56.972Z,24.38
2019-06-20T21:36:28.002Z,24.33
2019-06-20T21:38:58.995Z,24.24
2019-06-20T21:41:29.980Z,24.14
2019-06-20T21:44:01.541Z,23.99
2019-06-20T21:46:32.532Z,23.92
2019-06-20T21:49:04.940Z,23.88
2019-06-20T21:51:36.188Z,23.80
2019-06-20T21:54:07.152Z,23.75
2019-06-20T21:56:38.139Z,23.70
2019-06-20T21:59:09.119Z,23.71
2019-06-20T22:01:40.017Z,23.71
2019-06-20T22:04:11.020Z,23.83
2019-06-20T22:06:41.979Z,23.86
2019-06-20T22:09:12.991Z,23.87
2019-06-20T22:11:44.006Z,23.88
2019-06-20T22:14:14.903Z,23.84
2019-06-20T22:16:45.852Z,23.86
2019-06-20T22:19:16.830Z,23.86
2019-06-20T22:21:47.792Z,24.01
2019-06-20T22:24:18.785Z,23.99
2019-06-20T22:26:51.366Z,23.95
2019-06-20T22:29:22.350Z,23.90
2019-06-20T22:31:53.325Z,23.82
2019-06-20T22:34:24.384Z,23.71
2019-06-20T22:36:55.378Z,23.58
2019-06-20T22:39:26.485Z,23.50
2019-06-20T22:41:57.595Z,23.49
2019-06-20T22:44:28.519Z,23.59
2019-06-20T22:46:59.444Z,23.64
2019-06-20T22:49:30.410Z,23.58
2019-06-20T22:52:01.380Z,23.58
2019-06-20T22:54:32.389Z,23.55
2019-06-20T22:57:03.359Z,23.50
2019-06-20T22:59:34.336Z,23.48
2019-06-20T23:02:05.325Z,23.46
2019-06-20T23:04:36.274Z,23.45
2019-06-20T23:07:07.260Z,23.39
2019-06-20T23:09:38.284Z,23.35
2019-06-20T23:12:09.314Z,23.29
2019-06-20T23:14:40.338Z,23.20
2019-06-20T23:17:11.425Z,22.96
2019-06-20T23:19:42.411Z,22.90
2019-06-20T23:22:13.389Z,22.88
2019-06-20T23:24:44.420Z,22.79
2019-06-20T23:27:15.322Z,22.80
2019-06-20T23:29:46.345Z,22.83
2019-06-20T23:32:17.365Z,22.77
2019-06-20T23:34:48.313Z,22.76
2019-06-20T23:37:19.348Z,22.75
2019-06-20T23:39:50.362Z,22.68
2019-06-20T23:42:21.254Z,22.76
2019-06-20T23:44:52.317Z,22.80
2019-06-20T23:47:23.283Z,22.83
2019-06-20T23:49:54.318Z,22.80
2019-06-20T23:52:30.184Z,22.83
2019-06-20T23:55:01.697Z,22.74
2019-06-20T23:57:32.650Z,22.63
